EDT,Max TemperatureF,Mean TemperatureF,Min TemperatureF,Max Dew PointF,MeanDew PointF,Min DewpointF,Max Humidity, Mean Humidity, Min Humidity, Max Sea Level PressureIn, Mean Sea Level PressureIn, Min Sea Level PressureIn, Max VisibilityMiles, Mean VisibilityMiles, Min VisibilityMiles, Max Wind SpeedMPH, Mean Wind SpeedMPH, Max Gust SpeedMPH,PrecipitationIn, CloudCover, Events, WindDirDegrees
2012-7-1,86,78,69,68,61,56,81,61,38,29.86,29.81,29.76,10,10,10,15,8,20,0.00,1,,272
2012-7-2,81,74,66,60,57,55,73,59,45,29.91,29.88,29.84,10,10,10,15,8,18,T,3,Rain,311
2012-7-3,82,73,63,61,54,49,81,56,33,29.96,29.91,29.87,10,10,10,16,8,23,0.00,1,,288
2012-7-4,85,76,66,68,65,61,94,76,51,29.86,29.79,29.71,10,8,2,16,8,24,0.08,4,Rain,251
2012-7-5,81,73,65,69,62,58,91,65,48,29.89,29.78,29.70,10,10,8,9,8,10,0.00,1,,335
2012-7-6,84,74,64,64,60,58,84,64,46,29.94,29.90,29.86,10,10,10,12,6,15,0.00,1,,289
2012-7-7,80,75,69,69,64,61,81,70,56,29.86,29.81,29.76,10,10,10,18,10,23,T,2,Rain,281
2012-7-8,85,76,66,63,60,52,87,61,36,29.90,29.84,29.81,10,10,10,18,9,23,0.00,0,,307
2012-7-9,80,70,60,54,49,45,67,46,33,30.00,29.95,29.91,10,10,10,14,7,20,0.00,1,,325
2012-7-10,80,72,63,55,46,40,68,41,28,30.11,30.05,30.00,10,10,10,14,5,18,0.00,1,,324
2012-7-11,84,73,62,61,56,50,82,57,32,30.22,30.17,30.11,10,10,10,10,6,14,0.00,1,,245
2012-7-12,88,76,64,62,58,54,87,57,33,30.22,30.18,30.13,10,10,10,16,10,21,0.00,0,,250
2012-7-13,85,76,66,67,62,56,78,63,53,30.22,30.19,30.17,10,10,10,15,9,18,0.00,0,,231
2012-7-14,87,78,69,65,62,58,78,63,40,30.19,30.15,30.10,10,10,2,20,10,24,0.07,3,Rain,270
2012-7-15,85,77,69,72,67,63,94,74,52,30.13,30.03,29.91,10,9,6,14,8,17,0.01,1,Rain,238
2012-7-16,87,78,69,70,67,65,94,74,49,29.91,29.83,29.78,10,10,10,17,10,21,T,3,,287
2012-7-17,92,82,72,67,65,61,78,59,39,29.82,29.77,29.70,10,10,10,20,11,25,0.00,0,,250
2012-7-18,91,81,71,72,69,66,93,90,87,29.91,29.83,29.72,10,10,7,18,8,24,0.03,4,Rain,237
2012-7-19,80,73,66,70,54,49,68,54,39,30.04,29.97,29.91,10,10,10,13,6,21,0.00,4,,17
2012-7-20,69,63,57,57,54,49,87,70,52,30.11,30.08,30.03,10,10,10,10,5,17,0.00,5,,66
2012-7-21,79,67,54,57,51,47,93,63,33,30.14,30.11,30.09,10,10,10,13,5,16,0.00,0,,138
2012-7-22,83,71,58,59,56,52,86,63,39,30.16,30.13,30.11,10,10,10,16,11,22,0.00,1,,236
2012-7-23,84,74,64,70,65,56,93,72,51,30.12,29.95,29.79,10,9,6,18,11,24,0.01,4,Rain,231
2012-7-24,87,75,63,70,66,51,93,72,51,29.79,29.68,29.58,10,9,5,30,12,38,0.22,3,Rain-Thunderstorm,269
2012-7-25,81,70,59,52,50,45,75,52,28,29.84,29.81,29.75,10,10,10,20,9,26,0.00,0,,316
2012-7-26,81,74,66,72,63,50,82,67,51,29.81,29.70,29.63,10,9,4,17,9,23,0.01,4,Rain,236
2012-7-27,77,72,66,70,67,64,97,88,79,29.93,29.80,29.65,10,8,0,15,5,20,0.02,6,Fog-Rain,12
2012-7-28,82,73,64,66,64,62,100,77,54,30.00,29.98,29.92,10,6,0,10,5,15,2.70,7,Fog-Rain-Thunderstorm,58
2012-7-29,72,66,60,64,62,58,100,87,73,30.10,30.02,29.96,10,8,0,10,5,16,0.01,7,Fog-Rain,40
2012-7-30,80,69,57,62,59,55,93,74,54,30.15,30.12,30.10,10,10,10,14,7,17,0.00,0,,225
2012-7-31,76,68,60,63,60,55,100,77,53,30.14,30.09,29.93,10,9,1,15,6,18,0.00,4,,188